sensor_id;sensor_type;location;lat;lon;timestamp;pressure;altitude;pressure_sealevel;temperature;humidity
36386;BME280;24125;47.482;8.770;2023-04-04T00:01:51;96662.22;;;3.45;68.25
36386;BME280;24125;47.482;8.770;2023-04-04T00:04:24;96662.75;;;3.42;68.08
36386;BME280;24125;47.482;8.770;2023-04-04T00:06:58;96665.13;;;3.38;68.63
36386;BME280;24125;47.482;8.770;2023-04-04T00:09:31;96660.41;;;3.35;68.66
36386;BME280;24125;47.482;8.770;2023-04-04T00:12:04;96660.66;;;3.34;68.67
36386;BME280;24125;47.482;8.770;2023-04-04T00:14:37;96660.13;;;3.32;68.71
36386;BME280;24125;47.482;8.770;2023-04-04T00:17:09;96657.50;;;3.32;68.50
36386;BME280;24125;47.482;8.770;2023-04-04T00:19:42;96662.25;;;3.30;68.78
36386;BME280;24125;47.482;8.770;2023-04-04T00:22:16;96657.75;;;3.30;68.93
36386;BME280;24125;47.482;8.770;2023-04-04T00:24:49;96660.41;;;3.30;69.47
36386;BME280;24125;47.482;8.770;2023-04-04T00:27:22;96652.47;;;3.30;69.25
36386;BME280;24125;47.482;8.770;2023-04-04T00:29:55;96657.75;;;3.30;69.65
36386;BME280;24125;47.482;8.770;2023-04-04T00:32:27;96656.97;;;3.30;69.43
36386;BME280;24125;47.482;8.770;2023-04-04T00:35:00;96653.28;;;3.31;69.46
36386;BME280;24125;47.482;8.770;2023-04-04T00:37:35;96654.84;;;3.32;70.23
36386;BME280;24125;47.482;8.770;2023-04-04T00:40:09;96660.66;;;3.34;70.72
36386;BME280;24125;47.482;8.770;2023-04-04T00:42:43;96655.63;;;3.37;70.44
36386;BME280;24125;47.482;8.770;2023-04-04T00:45:15;96656.16;;;3.39;69.96
36386;BME280;24125;47.482;8.770;2023-04-04T00:47:48;96650.63;;;3.41;69.83
36386;BME280;24125;47.482;8.770;2023-04-04T00:50:22;96654.03;;;3.41;69.75
36386;BME280;24125;47.482;8.770;2023-04-04T00:52:56;96647.72;;;3.42;69.57
36386;BME280;24125;47.482;8.770;2023-04-04T00:55:29;96652.19;;;3.42;69.35
36386;BME280;24125;47.482;8.770;2023-04-04T00:58:02;96647.44;;;3.39;69.45
36386;BME280;24125;47.482;8.770;2023-04-04T01:00:35;96654.56;;;3.38;69.53
36386;BME280;24125;47.482;8.770;2023-04-04T01:03:08;96645.84;;;3.38;68.54
36386;BME280;24125;47.482;8.770;2023-04-04T01:05:43;96649.59;;;3.37;69.48
36386;BME280;24125;47.482;8.770;2023-04-04T01:08:18;96647.44;;;3.39;69.40
36386;BME280;24125;47.482;8.770;2023-04-04T01:10:53;96648.50;;;3.38;69.82
36386;BME280;24125;47.482;8.770;2023-04-04T01:13:25;96655.09;;;3.40;69.49
36386;BME280;24125;47.482;8.770;2023-04-04T01:15:58;96651.94;;;3.38;69.48
36386;BME280;24125;47.482;8.770;2023-04-04T01:18:31;96649.03;;;3.40;70.55
36386;BME280;24125;47.482;8.770;2023-04-04T01:21:06;96649.81;;;3.40;70.13
36386;BME280;24125;47.482;8.770;2023-04-04T01:23:45;96649.03;;;3.40;69.59
36386;BME280;24125;47.482;8.770;2023-04-04T01:26:22;96653.25;;;3.41;69.67
36386;BME280;24125;47.482;8.770;2023-04-04T01:28:57;96644.00;;;3.38;69.39
36386;BME280;24125;47.482;8.770;2023-04-04T01:31:32;96632.66;;;3.38;69.27
36386;BME280;24125;47.482;8.770;2023-04-04T01:34:08;96637.94;;;3.38;69.09
36386;BME280;24125;47.482;8.770;2023-04-04T01:36:43;96633.22;;;3.35;70.15
36386;BME280;24125;47.482;8.770;2023-04-04T01:39:21;96632.16;;;3.36;70.10
36386;BME280;24125;47.482;8.770;2023-04-04T01:41:56;96637.69;;;3.34;69.98
36386;BME280;24125;47.482;8.770;2023-04-04T01:44:29;96636.13;;;3.33;69.55
36386;BME280;24125;47.482;8.770;2023-04-04T01:47:04;96630.31;;;3.31;69.71
36386;BME280;24125;47.482;8.770;2023-04-04T01:49:37;96627.66;;;3.31;70.10
36386;BME280;24125;47.482;8.770;2023-04-04T01:52:10;96633.50;;;3.28;69.35
36386;BME280;24125;47.482;8.770;2023-04-04T01:54:42;96644.31;;;3.27;69.52
36386;BME280;24125;47.482;8.770;2023-04-04T01:57:17;96639.81;;;3.22;69.93
36386;BME280;24125;47.482;8.770;2023-04-04T01:59:49;96640.38;;;3.19;69.18
36386;BME280;24125;47.482;8.770;2023-04-04T02:02:22;96640.09;;;3.16;68.85
36386;BME280;24125;47.482;8.770;2023-04-04T02:04:55;96638.78;;;3.13;68.79
36386;BME280;24125;47.482;8.770;2023-04-04T02:07:28;96638.53;;;3.10;68.63
36386;BME280;24125;47.482;8.770;2023-04-04T02:10:00;96635.63;;;3.06;68.82
36386;BME280;24125;47.482;8.770;2023-04-04T02:12:34;96637.50;;;3.00;68.65
36386;BME280;24125;47.482;8.770;2023-04-04T02:15:08;96639.59;;;2.98;69.22
36386;BME280;24125;47.482;8.770;2023-04-04T02:17:40;96635.63;;;2.96;69.01
36386;BME280;24125;47.482;8.770;2023-04-04T02:20:17;96641.47;;;2.93;69.15
36386;BME280;24125;47.482;8.770;2023-04-04T02:22:50;96638.28;;;2.91;69.20
36386;BME280;24125;47.482;8.770;2023-04-04T02:25:24;96637.22;;;2.87;68.94
36386;BME280;24125;47.482;8.770;2023-04-04T02:27:58;96638.28;;;2.86;68.89
36386;BME280;24125;47.482;8.770;2023-04-04T02:30:31;96632.75;;;2.82;68.68
36386;BME280;24125;47.482;8.770;2023-04-04T02:33:04;96633.28;;;2.79;68.63
36386;BME280;24125;47.482;8.770;2023-04-04T02:35:36;96634.63;;;2.77;69.04
36386;BME280;24125;47.482;8.770;2023-04-04T02:38:09;96637.25;;;2.77;69.15
36386;BME280;24125;47.482;8.770;2023-04-04T02:40:43;96632.50;;;2.74;69.23
36386;BME280;24125;47.482;8.770;2023-04-04T02:43:18;96635.13;;;2.74;69.35
36386;BME280;24125;47.482;8.770;2023-04-04T02:45:51;96625.09;;;2.71;69.38
36386;BME280;24125;47.482;8.770;2023-04-04T02:48:24;96630.63;;;2.69;69.54
36386;BME280;24125;47.482;8.770;2023-04-04T02:50:57;96623.28;;;2.66;69.31
36386;BME280;24125;47.482;8.770;2023-04-04T02:53:30;96625.38;;;2.64;69.40
36386;BME280;24125;47.482;8.770;2023-04-04T02:56:03;96630.91;;;2.62;69.60
36386;BME280;24125;47.482;8.770;2023-04-04T02:58:37;96627.22;;;2.58;69.38
36386;BME280;24125;47.482;8.770;2023-04-04T03:01:12;96627.47;;;2.57;69.35
36386;BME280;24125;47.482;8.770;2023-04-04T03:03:45;96620.09;;;2.54;69.67
36386;BME280;24125;47.482;8.770;2023-04-04T03:06:18;96626.66;;;2.51;69.52
36386;BME280;24125;47.482;8.770;2023-04-04T03:08:51;96625.63;;;2.47;69.32
36386;BME280;24125;47.482;8.770;2023-04-04T03:11:24;96627.72;;;2.45;69.17
36386;BME280;24125;47.482;8.770;2023-04-04T03:13:58;96622.22;;;2.42;68.95
36386;BME280;24125;47.482;8.770;2023-04-04T03:16:31;96622.97;;;2.37;68.84
36386;BME280;24125;47.482;8.770;2023-04-04T03:19:04;96612.94;;;2.34;69.17
36386;BME280;24125;47.482;8.770;2023-04-04T03:21:37;96618.75;;;2.31;69.10
36386;BME280;24125;47.482;8.770;2023-04-04T03:24:10;96621.66;;;2.30;68.72
36386;BME280;24125;47.482;8.770;2023-04-04T03:26:43;96616.91;;;2.26;69.47
36386;BME280;24125;47.482;8.770;2023-04-04T03:29:18;96625.06;;;2.25;69.08
36386;BME280;24125;47.482;8.770;2023-04-04T03:31:50;96620.88;;;2.24;69.23
36386;BME280;24125;47.482;8.770;2023-04-04T03:34:23;96625.06;;;2.25;69.46
36386;BME280;24125;47.482;8.770;2023-04-04T03:36:57;96623.75;;;2.22;69.07
36386;BME280;24125;47.482;8.770;2023-04-04T03:39:30;96610.84;;;2.21;69.14
36386;BME280;24125;47.482;8.770;2023-04-04T03:42:03;96614.78;;;2.18;69.46
36386;BME280;24125;47.482;8.770;2023-04-04T03:44:39;96614.78;;;2.18;69.44
36386;BME280;24125;47.482;8.770;2023-04-04T03:47:12;96609.50;;;2.18;69.63
36386;BME280;24125;47.482;8.770;2023-04-04T03:49:45;96618.47;;;2.17;70.45
36386;BME280;24125;47.482;8.770;2023-04-04T03:52:18;96621.09;;;2.17;70.05
36386;BME280;24125;47.482;8.770;2023-04-04T03:54:51;96617.94;;;2.15;68.28
36386;BME280;24125;47.482;8.770;2023-04-04T03:57:25;96615.31;;;2.15;69.11
36386;BME280;24125;47.482;8.770;2023-04-04T04:00:00;96611.59;;;2.16;68.70
36386;BME280;24125;47.482;8.770;2023-04-04T04:02:33;96619.50;;;2.16;68.50
36386;BME280;24125;47.482;8.770;2023-04-04T04:05:06;96622.13;;;2.16;69.63
36386;BME280;24125;47.482;8.770;2023-04-04T04:07:41;96621.63;;;2.19;69.67
36386;BME280;24125;47.482;8.770;2023-04-04T04:10:14;96628.75;;;2.19;70.14
36386;BME280;24125;47.482;8.770;2023-04-04T04:12:47;96623.47;;;2.19;70.54
36386;BME280;24125;47.482;8.770;2023-04-04T04:15:21;96626.34;;;2.17;69.13
36386;BME280;24125;47.482;8.770;2023-04-04T04:17:54;96628.19;;;2.17;69.79
36386;BME280;24125;47.482;8.770;2023-04-04T04:20:27;96628.47;;;2.15;69.43
36386;BME280;24125;47.482;8.770;2023-04-04T04:23:00;96621.09;;;2.12;69.74
36386;BME280;24125;47.482;8.770;2023-04-04T04:25:32;96622.41;;;2.10;68.52
36386;BME280;24125;47.482;8.770;2023-04-04T04:28:05;96622.66;;;2.08;68.35
36386;BME280;24125;47.482;8.770;2023-04-04T04:30:39;96629.75;;;2.08;68.90
36386;BME280;24125;47.482;8.770;2023-04-04T04:33:12;96630.84;;;2.07;68.75
36386;BME280;24125;47.482;8.770;2023-04-04T04:35:45;96622.66;;;2.03;68.75
36386;BME280;24125;47.482;8.770;2023-04-04T04:38:18;96629.22;;;2.01;68.31
36386;BME280;24125;47.482;8.770;2023-04-04T04:40:51;96627.13;;;1.98;68.01
36386;BME280;24125;47.482;8.770;2023-04-04T04:43:23;96628.66;;;1.94;68.17
36386;BME280;24125;47.482;8.770;2023-04-04T04:45:58;96633.94;;;1.88;68.25
36386;BME280;24125;47.482;8.770;2023-04-04T04:48:31;96635.50;;;1.84;68.19
36386;BME280;24125;47.482;8.770;2023-04-04T04:51:04;96633.38;;;1.81;68.33
36386;BME280;24125;47.482;8.770;2023-04-04T04:53:37;96640.22;;;1.77;67.64
36386;BME280;24125;47.482;8.770;2023-04-04T04:56:09;96644.13;;;1.75;68.43
36386;BME280;24125;47.482;8.770;2023-04-04T04:58:42;96642.84;;;1.72;68.02
36386;BME280;24125;47.482;8.770;2023-04-04T05:01:19;96642.28;;;1.70;68.18
36386;BME280;24125;47.482;8.770;2023-04-04T05:03:52;96649.13;;;1.71;68.75
36386;BME280;24125;47.482;8.770;2023-04-04T05:06:25;96645.97;;;1.69;69.17
36386;BME280;24125;47.482;8.770;2023-04-04T05:08:57;96639.66;;;1.70;69.37
36386;BME280;24125;47.482;8.770;2023-04-04T05:11:30;96643.09;;;1.71;69.48
36386;BME280;24125;47.482;8.770;2023-04-04T05:14:04;96654.91;;;1.73;69.10
36386;BME280;24125;47.482;8.770;2023-04-04T05:16:38;96651.00;;;1.76;69.58
36386;BME280;24125;47.482;8.770;2023-04-04T05:19:11;96652.56;;;1.77;69.90
36386;BME280;24125;47.482;8.770;2023-04-04T05:21:44;96652.88;;;1.80;69.93
36386;BME280;24125;47.482;8.770;2023-04-04T05:24:17;96650.75;;;1.82;69.90
36386;BME280;24125;47.482;8.770;2023-04-04T05:26:50;96659.19;;;1.84;69.79
36386;BME280;24125;47.482;8.770;2023-04-04T05:29:23;96662.91;;;1.88;70.28
36386;BME280;24125;47.482;8.770;2023-04-04T05:31:57;96660.78;;;1.90;70.15
36386;BME280;24125;47.482;8.770;2023-04-04T05:34:30;96665.53;;;1.94;70.01
36386;BME280;24125;47.482;8.770;2023-04-04T05:37:02;96667.91;;;1.95;69.70
36386;BME280;24125;47.482;8.770;2023-04-04T05:39:35;96668.72;;;2.01;70.70
36386;BME280;24125;47.482;8.770;2023-04-04T05:42:09;96668.72;;;2.01;69.99
36386;BME280;24125;47.482;8.770;2023-04-04T05:44:42;96671.38;;;2.06;70.27
36386;BME280;24125;47.482;8.770;2023-04-04T05:47:16;96670.84;;;2.09;69.63
36386;BME280;24125;47.482;8.770;2023-04-04T05:49:52;96668.25;;;2.14;69.95
36386;BME280;24125;47.482;8.770;2023-04-04T05:52:25;96670.34;;;2.17;70.23
36386;BME280;24125;47.482;8.770;2023-04-04T05:54:57;96679.06;;;2.22;71.30
36386;BME280;24125;47.482;8.770;2023-04-04T05:57:30;96676.19;;;2.29;71.13
36386;BME280;24125;47.482;8.770;2023-04-04T06:00:04;96673.84;;;2.38;71.25
36386;BME280;24125;47.482;8.770;2023-04-04T06:02:41;96673.06;;;2.47;71.97
36386;BME280;24125;47.482;8.770;2023-04-04T06:05:15;96679.94;;;2.58;72.77
36386;BME280;24125;47.482;8.770;2023-04-04T06:07:48;96672.31;;;2.67;71.76
36386;BME280;24125;47.482;8.770;2023-04-04T06:10:20;96671.53;;;2.77;72.06
36386;BME280;24125;47.482;8.770;2023-04-04T06:12:53;96677.06;;;2.85;71.16
36386;BME280;24125;47.482;8.770;2023-04-04T06:15:26;96677.34;;;2.94;71.32
36386;BME280;24125;47.482;8.770;2023-04-04T06:18:01;96677.59;;;3.02;72.15
36386;BME280;24125;47.482;8.770;2023-04-04T06:20:33;96674.66;;;3.14;71.77
36386;BME280;24125;47.482;8.770;2023-04-04T06:23:06;96679.16;;;3.24;70.85
36386;BME280;24125;47.482;8.770;2023-04-04T06:25:40;96683.09;;;3.36;71.25
36386;BME280;24125;47.482;8.770;2023-04-04T06:28:13;96675.94;;;3.52;72.31
36386;BME280;24125;47.482;8.770;2023-04-04T06:30:46;96679.84;;;3.65;72.41
36386;BME280;24125;47.482;8.770;2023-04-04T06:33:21;96682.47;;;3.80;73.39
36386;BME280;24125;47.482;8.770;2023-04-04T06:35:55;96677.66;;;3.97;73.63
36386;BME280;24125;47.482;8.770;2023-04-04T06:38:28;96680.22;;;4.12;73.33
36386;BME280;24125;47.482;8.770;2023-04-04T06:41:01;96680.41;;;4.31;73.58
36386;BME280;24125;47.482;8.770;2023-04-04T06:43:34;96683.19;;;4.50;73.82
36386;BME280;24125;47.482;8.770;2023-04-04T06:46:07;96678.56;;;4.71;73.40
36386;BME280;24125;47.482;8.770;2023-04-04T06:48:42;96680.53;;;4.89;74.52
36386;BME280;24125;47.482;8.770;2023-04-04T06:51:15;96678.81;;;5.08;72.74
36386;BME280;24125;47.482;8.770;2023-04-04T06:53:48;96680.53;;;5.23;72.80
36386;BME280;24125;47.482;8.770;2023-04-04T06:56:20;96681.75;;;5.36;72.86
36386;BME280;24125;47.482;8.770;2023-04-04T06:58:54;96686.09;;;5.50;74.83
36386;BME280;24125;47.482;8.770;2023-04-04T07:01:27;96693.91;;;5.65;74.89
36386;BME280;24125;47.482;8.770;2023-04-04T07:04:01;96680.53;;;5.76;73.62
36386;BME280;24125;47.482;8.770;2023-04-04T07:06:34;96684.66;;;5.87;73.92
36386;BME280;24125;47.482;8.770;2023-04-04T07:09:07;96697.53;;;5.98;73.18
36386;BME280;24125;47.482;8.770;2023-04-04T07:11:56;96691.84;;;6.10;74.96
36386;BME280;24125;47.482;8.770;2023-04-04T07:14:29;96695.44;;;6.19;74.90
36386;BME280;24125;47.482;8.770;2023-04-04T07:17:02;96696.91;;;6.30;74.18
36386;BME280;24125;47.482;8.770;2023-04-04T07:19:53;96692.22;;;6.41;74.59
36386;BME280;24125;47.482;8.770;2023-04-04T07:22:26;96691.03;;;6.52;74.50
36386;BME280;24125;47.482;8.770;2023-04-04T07:24:58;96693.03;;;6.60;72.36
36386;BME280;24125;47.482;8.770;2023-04-04T07:27:31;96698.50;;;6.69;73.65
36386;BME280;24125;47.482;8.770;2023-04-04T07:30:04;96695.78;;;6.74;73.65
36386;BME280;24125;47.482;8.770;2023-04-04T07:32:37;96693.59;;;6.76;73.00
36386;BME280;24125;47.482;8.770;2023-04-04T07:35:11;96689.38;;;6.75;74.18
36386;BME280;24125;47.482;8.770;2023-04-04T07:37:45;96694.41;;;6.76;72.88
36386;BME280;24125;47.482;8.770;2023-04-04T07:40:17;96689.09;;;6.76;72.79
36386;BME280;24125;47.482;8.770;2023-04-04T07:42:50;96696.25;;;6.76;68.66
36386;BME280;24125;47.482;8.770;2023-04-04T07:45:24;96686.94;;;6.78;72.59
36386;BME280;24125;47.482;8.770;2023-04-04T07:47:57;96683.22;;;6.79;72.26
36386;BME280;24125;47.482;8.770;2023-04-04T07:50:32;96688.75;;;6.83;71.42
36386;BME280;24125;47.482;8.770;2023-04-04T07:53:05;96686.09;;;6.83;67.68
36386;BME280;24125;47.482;8.770;2023-04-04T07:55:38;96684.44;;;6.87;71.69
36386;BME280;24125;47.482;8.770;2023-04-04T07:58:11;96683.13;;;6.85;71.19
36386;BME280;24125;47.482;8.770;2023-04-04T08:00:43;96683.91;;;6.85;71.44
36386;BME280;24125;47.482;8.770;2023-04-04T08:03:16;96672.75;;;6.88;72.71
36386;BME280;24125;47.482;8.770;2023-04-04T08:05:51;96678.56;;;6.90;72.67
36386;BME280;24125;47.482;8.770;2023-04-04T08:08:24;96673.44;;;6.94;72.71
36386;BME280;24125;47.482;8.770;2023-04-04T08:10:57;96666.47;;;6.98;72.95
36386;BME280;24125;47.482;8.770;2023-04-04T08:13:30;96672.50;;;7.03;73.36
36386;BME280;24125;47.482;8.770;2023-04-04T08:16:03;96663.88;;;7.11;72.81
36386;BME280;24125;47.482;8.770;2023-04-04T08:18:36;96665.38;;;7.17;72.41
36386;BME280;24125;47.482;8.770;2023-04-04T08:21:10;96674.22;;;7.27;74.10
36386;BME280;24125;47.482;8.770;2023-04-04T08:23:43;96670.13;;;7.34;72.46
36386;BME280;24125;47.482;8.770;2023-04-04T08:26:16;96671.91;;;7.39;71.24
36386;BME280;24125;47.482;8.770;2023-04-04T08:28:49;96670.72;;;7.45;70.95
36386;BME280;24125;47.482;8.770;2023-04-04T08:31:22;96666.69;;;7.47;69.61
36386;BME280;24125;47.482;8.770;2023-04-04T08:33:55;96663.94;;;7.52;69.47
36386;BME280;24125;47.482;8.770;2023-04-04T08:36:29;96668.41;;;7.57;69.89
36386;BME280;24125;47.482;8.770;2023-04-04T08:39:02;96656.69;;;7.58;72.12
36386;BME280;24125;47.482;8.770;2023-04-04T08:41:34;96670.94;;;7.62;73.24
36386;BME280;24125;47.482;8.770;2023-04-04T08:44:07;96666.63;;;7.66;72.52
36386;BME280;24125;47.482;8.770;2023-04-04T08:46:42;96666.81;;;7.70;73.26
36386;BME280;24125;47.482;8.770;2023-04-04T08:49:15;96677.38;;;7.75;72.56
36386;BME280;24125;47.482;8.770;2023-04-04T08:51:53;96673.81;;;7.79;73.25
36386;BME280;24125;47.482;8.770;2023-04-04T08:54:27;96671.38;;;7.83;72.10
36386;BME280;24125;47.482;8.770;2023-04-04T08:57:02;96667.34;;;7.85;70.40
36386;BME280;24125;47.482;8.770;2023-04-04T08:59:34;96664.06;;;7.88;70.70
36386;BME280;24125;47.482;8.770;2023-04-04T09:02:14;96662.81;;;7.86;65.69
36386;BME280;24125;47.482;8.770;2023-04-04T09:04:48;96663.41;;;7.83;67.63
36386;BME280;24125;47.482;8.770;2023-04-04T09:07:37;96671.47;;;7.78;68.06
36386;BME280;24125;47.482;8.770;2023-04-04T09:10:10;96689.59;;;7.76;60.11
36386;BME280;24125;47.482;8.770;2023-04-04T09:12:44;96676.59;;;7.74;65.34
36386;BME280;24125;47.482;8.770;2023-04-04T09:15:17;96676.09;;;7.72;61.01
36386;BME280;24125;47.482;8.770;2023-04-04T09:17:50;96679.25;;;7.74;67.81
36386;BME280;24125;47.482;8.770;2023-04-04T09:20:32;96679.53;;;7.73;60.03
36386;BME280;24125;47.482;8.770;2023-04-04T09:23:07;96678.75;;;7.72;67.88
36386;BME280;24125;47.482;8.770;2023-04-04T09:25:44;96670.75;;;7.72;69.42
36386;BME280;24125;47.482;8.770;2023-04-04T09:28:34;96671.38;;;7.69;69.96
36386;BME280;24125;47.482;8.770;2023-04-04T09:31:07;96675.69;;;7.65;69.04
36386;BME280;24125;47.482;8.770;2023-04-04T09:33:40;96686.41;;;7.60;69.01
36386;BME280;24125;47.482;8.770;2023-04-04T09:36:13;96679.31;;;7.55;70.46
36386;BME280;24125;47.482;8.770;2023-04-04T09:38:50;96681.78;;;7.52;69.62
36386;BME280;24125;47.482;8.770;2023-04-04T09:41:24;96686.59;;;7.50;67.72
36386;BME280;24125;47.482;8.770;2023-04-04T09:43:57;96678.63;;;7.50;70.44
36386;BME280;24125;47.482;8.770;2023-04-04T09:46:30;96674.88;;;7.51;71.31
36386;BME280;24125;47.482;8.770;2023-04-04T09:49:03;96684.72;;;7.50;61.13
36386;BME280;24125;47.482;8.770;2023-04-04T09:51:36;96679.88;;;7.52;68.68
36386;BME280;24125;47.482;8.770;2023-04-04T09:54:15;96673.03;;;7.51;70.17
36386;BME280;24125;47.482;8.770;2023-04-04T09:57:00;96664.56;;;7.49;68.54
36386;BME280;24125;47.482;8.770;2023-04-04T09:59:33;96675.47;;;7.48;66.62
36386;BME280;24125;47.482;8.770;2023-04-04T10:02:06;96674.47;;;7.44;65.00
36386;BME280;24125;47.482;8.770;2023-04-04T10:04:41;96678.22;;;7.43;67.41
36386;BME280;24125;47.482;8.770;2023-04-04T10:07:17;96674.28;;;7.40;68.97
36386;BME280;24125;47.482;8.770;2023-04-04T10:09:51;96675.06;;;7.41;66.91
36386;BME280;24125;47.482;8.770;2023-04-04T10:12:24;96680.66;;;7.39;69.61
36386;BME280;24125;47.482;8.770;2023-04-04T10:14:57;96669.25;;;7.39;69.44
36386;BME280;24125;47.482;8.770;2023-04-04T10:17:30;96670.31;;;7.38;70.48
36386;BME280;24125;47.482;8.770;2023-04-04T10:20:04;96660.19;;;7.40;69.12
36386;BME280;24125;47.482;8.770;2023-04-04T10:22:37;96663.84;;;7.44;71.54
36386;BME280;24125;47.482;8.770;2023-04-04T10:25:12;96658.44;;;7.49;71.84
36386;BME280;24125;47.482;8.770;2023-04-04T10:27:45;96661.22;;;7.57;73.70
36386;BME280;24125;47.482;8.770;2023-04-04T10:30:19;96667.72;;;7.65;70.44
36386;BME280;24125;47.482;8.770;2023-04-04T10:32:55;96661.72;;;7.73;73.50
36386;BME280;24125;47.482;8.770;2023-04-04T10:35:29;96651.97;;;7.82;73.09
36386;BME280;24125;47.482;8.770;2023-04-04T10:38:04;96655.81;;;7.90;66.46
36386;BME280;24125;47.482;8.770;2023-04-04T10:40:40;96672.94;;;7.97;64.30
36386;BME280;24125;47.482;8.770;2023-04-04T10:43:15;96667.72;;;8.06;66.94
36386;BME280;24125;47.482;8.770;2023-04-04T10:45:52;96667.81;;;8.15;71.70
36386;BME280;24125;47.482;8.770;2023-04-04T10:48:26;96652.22;;;8.22;70.06
36386;BME280;24125;47.482;8.770;2023-04-04T10:50:59;96665.44;;;8.27;70.69
36386;BME280;24125;47.482;8.770;2023-04-04T10:53:32;96663.97;;;8.35;71.20
36386;BME280;24125;47.482;8.770;2023-04-04T10:56:07;96659.31;;;8.40;72.42
36386;BME280;24125;47.482;8.770;2023-04-04T10:58:40;96649.66;;;8.44;70.38
36386;BME280;24125;47.482;8.770;2023-04-04T11:01:14;96649.09;;;8.47;60.75
36386;BME280;24125;47.482;8.770;2023-04-04T11:09:53;96639.47;;;8.60;70.28
36386;BME280;24125;47.482;8.770;2023-04-04T11:12:29;96645.78;;;8.64;71.63
36386;BME280;24125;47.482;8.770;2023-04-04T11:15:07;96647.53;;;8.68;68.12
36386;BME280;24125;47.482;8.770;2023-04-04T11:17:41;96651.16;;;8.73;72.66
36386;BME280;24125;47.482;8.770;2023-04-04T11:20:15;96648.38;;;8.78;70.54
36386;BME280;24125;47.482;8.770;2023-04-04T11:22:48;96646.69;;;8.82;71.56
36386;BME280;24125;47.482;8.770;2023-04-04T11:25:24;96653.78;;;8.86;72.41
36386;BME280;24125;47.482;8.770;2023-04-04T11:28:02;96639.06;;;8.89;67.18
36386;BME280;24125;47.482;8.770;2023-04-04T11:30:40;96633.13;;;8.92;69.06
36386;BME280;24125;47.482;8.770;2023-04-04T11:33:25;96628.78;;;8.96;71.51
36386;BME280;24125;47.482;8.770;2023-04-04T11:36:03;96640.72;;;8.98;69.55
36386;BME280;24125;47.482;8.770;2023-04-04T11:38:39;96632.59;;;9.03;70.66
36386;BME280;24125;47.482;8.770;2023-04-04T11:41:12;96658.13;;;9.04;68.92
36386;BME280;24125;47.482;8.770;2023-04-04T11:43:47;96629.03;;;9.08;70.99
36386;BME280;24125;47.482;8.770;2023-04-04T11:46:21;96646.09;;;9.07;56.95
36386;BME280;24125;47.482;8.770;2023-04-04T11:48:55;96634.94;;;9.05;60.05
36386;BME280;24125;47.482;8.770;2023-04-04T11:51:28;96628.41;;;9.11;65.69
36386;BME280;24125;47.482;8.770;2023-04-04T11:54:02;96633.72;;;9.11;69.06
36386;BME280;24125;47.482;8.770;2023-04-04T11:56:36;96630.47;;;9.14;66.14
36386;BME280;24125;47.482;8.770;2023-04-04T11:59:11;96625.63;;;9.16;68.45
36386;BME280;24125;47.482;8.770;2023-04-04T12:01:44;96629.25;;;9.20;70.83
36386;BME280;24125;47.482;8.770;2023-04-04T12:04:17;96626.56;;;9.20;70.15
36386;BME280;24125;47.482;8.770;2023-04-04T12:06:51;96619.56;;;9.24;69.84
36386;BME280;24125;47.482;8.770;2023-04-04T12:09:24;96636.78;;;9.27;64.57
36386;BME280;24125;47.482;8.770;2023-04-04T12:11:57;96629.59;;;9.27;69.70
36386;BME280;24125;47.482;8.770;2023-04-04T12:14:31;96632.75;;;9.29;64.97
36386;BME280;24125;47.482;8.770;2023-04-04T12:17:04;96649.03;;;9.28;60.42
36386;BME280;24125;47.482;8.770;2023-04-04T12:19:38;96626.31;;;9.30;68.57
36386;BME280;24125;47.482;8.770;2023-04-04T12:22:10;96622.09;;;9.29;64.36
36386;BME280;24125;47.482;8.770;2023-04-04T12:24:43;96662.53;;;9.31;69.37
36386;BME280;24125;47.482;8.770;2023-04-04T12:27:16;96622.56;;;9.31;64.92
36386;BME280;24125;47.482;8.770;2023-04-04T12:29:50;96639.66;;;9.30;64.55
36386;BME280;24125;47.482;8.770;2023-04-04T12:32:24;96622.56;;;9.31;64.90
36386;BME280;24125;47.482;8.770;2023-04-04T12:34:59;96629.47;;;9.32;64.12
36386;BME280;24125;47.482;8.770;2023-04-04T12:37:32;96611.63;;;9.33;59.46
36386;BME280;24125;47.482;8.770;2023-04-04T12:40:05;96613.66;;;9.36;65.47
36386;BME280;24125;47.482;8.770;2023-04-04T12:42:38;96629.81;;;9.39;68.76
36386;BME280;24125;47.482;8.770;2023-04-04T12:45:13;96627.31;;;9.43;65.42
36386;BME280;24125;47.482;8.770;2023-04-04T12:47:50;96619.50;;;9.46;59.79
36386;BME280;24125;47.482;8.770;2023-04-04T12:50:23;96617.19;;;9.54;66.07
36386;BME280;24125;47.482;8.770;2023-04-04T12:52:58;96621.31;;;9.60;71.20
36386;BME280;24125;47.482;8.770;2023-04-04T12:55:51;96611.56;;;9.64;64.55
36386;BME280;24125;47.482;8.770;2023-04-04T12:58:24;96609.56;;;9.69;67.79
36386;BME280;24125;47.482;8.770;2023-04-04T13:00:59;96611.44;;;9.69;61.90
36386;BME280;24125;47.482;8.770;2023-04-04T13:03:33;96612.09;;;9.74;70.66
36386;BME280;24125;47.482;8.770;2023-04-04T13:06:11;96621.97;;;9.74;65.60
36386;BME280;24125;47.482;8.770;2023-04-04T13:08:48;96614.59;;;9.79;68.18
36386;BME280;24125;47.482;8.770;2023-04-04T13:11:21;96607.41;;;9.80;61.37
36386;BME280;24125;47.482;8.770;2023-04-04T13:14:00;96611.63;;;9.81;67.14
36386;BME280;24125;47.482;8.770;2023-04-04T13:16:35;96612.91;;;9.83;68.08
36386;BME280;24125;47.482;8.770;2023-04-04T13:19:08;96597.69;;;9.84;65.74
36386;BME280;24125;47.482;8.770;2023-04-04T13:21:41;96608.81;;;9.86;69.96
36386;BME280;24125;47.482;8.770;2023-04-04T13:24:13;96609.59;;;9.87;67.08
36386;BME280;24125;47.482;8.770;2023-04-04T13:26:47;96606.34;;;9.90;71.30
36386;BME280;24125;47.482;8.770;2023-04-04T13:29:19;96629.25;;;9.91;60.71
36386;BME280;24125;47.482;8.770;2023-04-04T13:31:56;96603.06;;;9.93;60.25
36386;BME280;24125;47.482;8.770;2023-04-04T13:34:29;96600.38;;;9.93;63.46
36386;BME280;24125;47.482;8.770;2023-04-04T13:37:02;96591.75;;;9.96;63.83
36386;BME280;24125;47.482;8.770;2023-04-04T13:39:35;96593.31;;;9.97;69.45
36386;BME280;24125;47.482;8.770;2023-04-04T13:42:08;96598.66;;;9.97;70.71
36386;BME280;24125;47.482;8.770;2023-04-04T13:44:41;96599.44;;;9.97;69.16
36386;BME280;24125;47.482;8.770;2023-04-04T13:47:15;96602.59;;;9.99;70.07
36386;BME280;24125;47.482;8.770;2023-04-04T13:49:48;96605.25;;;9.99;67.03
36386;BME280;24125;47.482;8.770;2023-04-04T13:52:20;96609.19;;;10.02;70.48